createdAt,value
2018-09-10T00:00:52.424Z,5.25
2018-09-10T00:03:20.433Z,5.08
2018-09-10T00:05:47.939Z,4.90
2018-09-10T00:08:15.361Z,4.83
2018-09-10T00:10:42.876Z,4.65
2018-09-10T00:13:10.994Z,4.70
2018-09-10T00:15:38.546Z,4.80
2018-09-10T00:18:06.148Z,4.55
2018-09-10T00:20:33.579Z,4.60
2018-09-10T00:23:02.345Z,4.20
2018-09-10T00:25:30.890Z,4.50
2018-09-10T00:27:58.976Z,4.10
2018-09-10T00:30:26.556Z,4.30
2018-09-10T00:32:54.082Z,4.40
2018-09-10T00:35:36.288Z,4.40
2018-09-10T00:38:03.884Z,4.42
2018-09-10T00:40:37.430Z,4.40
2018-09-10T00:45:52.717Z,3.98
2018-09-10T00:48:20.131Z,4.22
2018-09-10T00:50:49.143Z,4.10
2018-09-10T00:53:16.818Z,4.17
2018-09-10T00:55:44.286Z,4.37
2018-09-10T00:58:11.915Z,4.47
2018-09-10T01:00:39.590Z,4.33
2018-09-10T01:08:18.325Z,4.60
2018-09-10T01:10:45.997Z,4.62
2018-09-10T01:16:06.309Z,4.23
2018-09-10T01:21:45.052Z,4.40
2018-09-10T01:24:12.858Z,4.92
2018-09-10T01:26:40.404Z,4.47
2018-09-10T01:29:29.588Z,4.50
2018-09-10T01:31:57.233Z,4.50
2018-09-10T01:40:27.369Z,4.45
2018-09-10T01:42:55.042Z,4.12
2018-09-10T01:45:22.574Z,4.10
2018-09-10T01:47:50.547Z,4.42
2018-09-10T01:50:18.380Z,4.37
2018-09-10T01:52:45.977Z,4.40
2018-09-10T01:55:13.578Z,3.95
2018-09-10T01:57:41.105Z,4.00
2018-09-10T02:00:08.679Z,4.03
2018-09-10T02:02:36.807Z,4.20
2018-09-10T02:05:05.573Z,4.15
2018-09-10T02:07:33.160Z,4.15
2018-09-10T02:10:00.634Z,4.03
2018-09-10T02:12:28.066Z,4.10
2018-09-10T02:15:02.375Z,3.90
2018-09-10T02:17:30.757Z,4.25
2018-09-10T02:19:58.271Z,3.98
2018-09-10T02:22:38.650Z,4.23
2018-09-10T02:33:56.036Z,4.00
2018-09-10T02:39:26.641Z,4.17
2018-09-10T02:41:54.242Z,3.80
2018-09-10T02:44:21.849Z,4.10
2018-09-10T02:46:49.421Z,4.22
2018-09-10T02:49:16.954Z,4.27
2018-09-10T02:52:13.252Z,4.35
2018-09-10T02:54:40.728Z,4.03
2018-09-10T02:57:08.518Z,3.90
2018-09-10T02:59:36.091Z,4.12
2018-09-10T03:02:03.558Z,3.92
2018-09-10T03:04:31.203Z,3.83
2018-09-10T03:06:59.058Z,3.80
2018-09-10T03:09:26.429Z,4.17
2018-09-10T03:12:16.686Z,3.67
2018-09-10T03:14:44.246Z,3.85
2018-09-10T03:17:11.832Z,3.95
2018-09-10T03:19:39.417Z,4.27
2018-09-10T03:22:18.653Z,3.87
2018-09-10T03:24:46.400Z,4.08
2018-09-10T03:27:13.979Z,4.10
2018-09-10T03:29:41.540Z,4.20
2018-09-10T03:32:09.039Z,4.20
2018-09-10T03:34:36.527Z,3.87
2018-09-10T03:37:06.604Z,4.12
2018-09-10T03:39:34.125Z,3.83
2018-09-10T03:42:02.102Z,4.53
2018-09-10T03:44:29.682Z,4.72
2018-09-10T03:46:57.227Z,4.42
2018-09-10T03:49:24.604Z,4.37
2018-09-10T03:51:52.340Z,4.37
2018-09-10T03:54:20.007Z,4.50
2018-09-10T03:56:47.632Z,4.20
2018-09-10T03:59:15.056Z,4.58
2018-09-10T04:01:42.548Z,4.30
2018-09-10T04:04:13.784Z,4.15
2018-09-10T04:06:41.287Z,4.10
2018-09-10T04:09:09.463Z,4.80
2018-09-10T04:11:37.029Z,4.55
2018-09-10T04:14:04.732Z,4.60
2018-09-10T04:16:32.568Z,4.65
2018-09-10T04:19:01.112Z,4.50
2018-09-10T04:21:29.862Z,4.90
2018-09-10T04:23:57.340Z,6.15
2018-09-10T04:26:26.984Z,6.97
2018-09-10T04:28:54.649Z,7.20
2018-09-10T04:31:22.212Z,7.50
2018-09-10T04:33:50.313Z,8.30
2018-09-10T04:36:18.096Z,8.55
2018-09-10T04:38:45.678Z,7.20
2018-09-10T04:41:14.101Z,6.00
2018-09-10T04:43:41.817Z,6.30
2018-09-10T04:46:09.347Z,6.75
2018-09-10T04:48:36.755Z,5.95
2018-09-10T04:51:04.117Z,5.80
2018-09-10T04:53:31.537Z,6.40
2018-09-10T04:55:58.957Z,6.28
2018-09-10T04:58:26.398Z,6.05
2018-09-10T05:00:53.904Z,5.87
2018-09-10T05:03:21.636Z,6.15
2018-09-10T05:05:49.479Z,6.20
2018-09-10T05:08:16.919Z,6.45
2018-09-10T05:10:44.449Z,5.97
2018-09-10T05:13:11.888Z,6.12
2018-09-10T05:15:39.445Z,6.70
2018-09-10T05:18:07.052Z,6.20
2018-09-10T05:20:34.533Z,6.67
2018-09-10T05:23:02.242Z,7.08
2018-09-10T05:25:30.277Z,6.72
2018-09-10T05:28:02.371Z,6.92
2018-09-10T05:30:30.185Z,7.08
2018-09-10T05:33:27.076Z,6.55
2018-09-10T05:39:26.887Z,6.12
2018-09-10T05:41:54.840Z,5.85
2018-09-10T05:55:14.462Z,5.47
2018-09-10T05:57:43.140Z,5.40
2018-09-10T06:03:51.218Z,5.20
2018-09-10T06:06:35.967Z,4.80
2018-09-10T06:09:11.724Z,4.72
2018-09-10T06:11:45.538Z,5.67
2018-09-10T06:14:13.798Z,5.03
2018-09-10T06:19:48.292Z,5.28
2018-09-10T06:22:16.047Z,4.67
2018-09-10T06:24:49.569Z,5.03
2018-09-10T06:39:30.655Z,4.90
2018-09-10T06:41:58.175Z,4.90
2018-09-10T06:44:25.884Z,5.17
2018-09-10T06:46:53.846Z,5.40
2018-09-10T06:49:22.423Z,5.20
2018-09-10T06:51:52.360Z,5.60
2018-09-10T06:54:19.871Z,5.62
2018-09-10T06:56:48.673Z,5.87
2018-09-10T06:59:16.411Z,6.08
2018-09-10T07:01:44.013Z,5.97
2018-09-10T07:04:11.693Z,5.70
2018-09-10T07:06:39.300Z,6.25
2018-09-10T07:09:08.885Z,6.08
2018-09-10T07:11:36.855Z,5.78
2018-09-10T07:14:04.917Z,5.87
2018-09-10T07:16:33.109Z,5.80
2018-09-10T07:19:00.672Z,5.60
2018-09-10T07:21:28.340Z,5.50
2018-09-10T07:23:55.984Z,5.92
2018-09-10T07:26:23.412Z,5.85
2018-09-10T07:28:51.244Z,5.70
2018-09-10T07:31:19.006Z,5.53
2018-09-10T07:33:48.698Z,5.53
2018-09-10T07:36:17.309Z,5.60
2018-09-10T07:38:45.386Z,5.63
2018-09-10T07:41:12.740Z,5.78
2018-09-10T07:43:40.435Z,5.40
2018-09-10T07:46:07.942Z,5.30
2018-09-10T07:48:35.472Z,5.42
2018-09-10T07:51:03.030Z,5.60
2018-09-10T07:53:30.572Z,5.80
2018-09-10T07:55:58.189Z,5.65
2018-09-10T07:58:25.693Z,5.40
2018-09-10T08:00:53.174Z,5.05
2018-09-10T08:03:20.808Z,5.17
2018-09-10T08:05:48.349Z,5.12
2018-09-10T08:08:15.816Z,5.28
2018-09-10T08:10:49.188Z,4.90
2018-09-10T08:13:16.846Z,5.00
2018-09-10T08:15:44.363Z,4.70
2018-09-10T08:18:11.818Z,4.85
2018-09-10T08:20:39.584Z,4.78
2018-09-10T08:23:07.891Z,4.60
2018-09-10T08:25:35.457Z,4.62
2018-09-10T08:28:03.133Z,4.47
2018-09-10T08:30:30.828Z,4.30
2018-09-10T08:32:58.271Z,4.58
2018-09-10T08:35:25.897Z,4.65
2018-09-10T08:37:54.138Z,4.60
2018-09-10T08:40:21.795Z,4.60
2018-09-10T08:43:05.952Z,4.67
2018-09-10T08:45:56.166Z,4.37
2018-09-10T08:51:16.867Z,4.67
2018-09-10T09:02:54.110Z,4.58
2018-09-10T09:05:21.816Z,4.37
2018-09-10T09:13:35.008Z,4.05
2018-09-10T09:16:02.681Z,4.50
2018-09-10T09:27:28.045Z,4.40
2018-09-10T09:32:50.274Z,4.30
2018-09-10T10:03:56.365Z,4.42
2018-09-10T10:08:37.495Z,3.90
2018-09-10T10:11:28.124Z,3.75
2018-09-10T10:13:55.905Z,4.00
2018-09-10T10:16:25.578Z,3.62
2018-09-10T10:19:04.889Z,3.80
2018-09-10T10:21:47.216Z,3.87
2018-09-10T10:24:16.415Z,3.80
2018-09-10T10:26:47.076Z,3.67
2018-09-10T10:29:28.827Z,3.60
2018-09-10T10:32:32.022Z,3.70
2018-09-10T10:35:00.453Z,3.42
2018-09-10T10:37:29.615Z,3.33
2018-09-10T10:45:42.496Z,3.60
2018-09-10T10:48:32.116Z,3.08
2018-09-10T10:51:27.146Z,3.20
2018-09-10T11:02:45.351Z,3.30
2018-09-10T11:06:35.321Z,3.20
2018-09-10T11:09:09.013Z,3.35
2018-09-10T12:02:45.021Z,2.60
2018-09-10T12:08:05.976Z,2.50
2018-09-10T12:10:53.590Z,2.70
2018-09-10T12:13:26.285Z,2.70
2018-09-10T12:28:08.736Z,2.50
2018-09-10T12:30:57.458Z,2.47
2018-09-10T12:34:40.385Z,2.40
2018-09-10T12:37:19.957Z,2.50
2018-09-10T12:46:10.939Z,2.40
2018-09-10T12:48:59.031Z,2.62
2018-09-10T12:54:19.238Z,2.20
2018-09-10T12:56:46.746Z,1.90
2018-09-10T13:02:17.121Z,1.80
2018-09-10T13:10:43.529Z,2.10
2018-09-10T13:13:11.752Z,2.20
2018-09-10T13:15:39.285Z,2.30
2018-09-10T13:18:10.881Z,2.33
2018-09-10T13:20:38.481Z,2.00
2018-09-10T13:23:06.012Z,2.22
2018-09-10T13:25:33.441Z,2.12
2018-09-10T13:28:03.327Z,2.08
2018-09-10T13:30:32.685Z,2.02
2018-09-10T13:36:04.159Z,2.10
2018-09-10T13:38:32.966Z,2.00
2018-09-10T13:41:02.193Z,1.90
2018-09-10T13:43:33.120Z,2.10
2018-09-10T13:55:00.435Z,2.20
2018-09-10T13:57:42.825Z,2.40
2018-09-10T14:00:33.194Z,2.30
2018-09-10T14:08:56.301Z,2.35
2018-09-10T14:11:36.714Z,2.15
2018-09-10T14:15:38.525Z,2.58
2018-09-10T14:18:16.282Z,2.25
2018-09-10T14:20:44.697Z,2.30
2018-09-10T14:23:12.213Z,2.40
2018-09-10T14:25:40.011Z,2.50
2018-09-10T14:37:06.660Z,2.25
2018-09-10T14:39:34.313Z,2.20
2018-09-10T14:45:26.488Z,2.60
2018-09-10T14:54:11.856Z,2.15
2018-09-10T14:56:39.676Z,2.08
2018-09-10T15:02:23.072Z,2.58
2018-09-10T15:05:13.135Z,2.30
2018-09-10T15:07:41.199Z,2.45
2018-09-10T15:16:14.329Z,2.20
2018-09-10T15:18:47.633Z,2.40
2018-09-10T15:21:15.024Z,2.37
2018-09-10T15:26:47.431Z,2.40
2018-09-10T15:32:28.769Z,2.60
2018-09-10T15:43:57.372Z,2.27
2018-09-10T15:46:30.040Z,2.47
2018-09-10T15:49:19.805Z,2.55
2018-09-10T15:51:53.673Z,2.60
2018-09-10T15:54:22.186Z,2.50
2018-09-10T15:56:54.459Z,2.40
2018-09-10T15:59:38.309Z,2.70
2018-09-10T16:02:06.112Z,2.75
2018-09-10T16:04:34.041Z,2.98
2018-09-10T16:07:22.530Z,3.60
2018-09-10T16:09:52.433Z,3.37
2018-09-10T16:12:20.283Z,2.80
2018-09-10T16:15:03.962Z,2.77
2018-09-10T16:20:35.576Z,2.90
2018-09-10T16:35:17.752Z,2.80
2018-09-10T16:52:30.200Z,3.30
2018-09-10T16:57:51.207Z,2.58
2018-09-10T17:03:21.315Z,2.77
2018-09-10T17:20:34.687Z,4.42
2018-09-10T17:29:09.916Z,3.30
2018-09-10T17:37:49.815Z,3.25
2018-09-10T17:43:32.830Z,2.80
2018-09-10T17:52:16.257Z,3.52
2018-09-10T17:57:59.128Z,7.10
2018-09-10T18:00:32.263Z,4.87
2018-09-10T18:06:02.936Z,3.77
2018-09-10T18:08:30.664Z,2.87
2018-09-10T18:17:52.642Z,3.05
2018-09-10T18:20:34.505Z,3.30
2018-09-10T18:23:02.144Z,3.25
2018-09-10T18:25:30.481Z,3.40
2018-09-10T18:28:21.722Z,3.60
2018-09-10T18:30:49.214Z,3.62
2018-09-10T18:33:17.611Z,3.77
2018-09-10T18:35:55.142Z,4.35
2018-09-10T18:38:24.305Z,4.55
2018-09-10T18:40:51.987Z,4.97
2018-09-10T18:49:57.314Z,3.80
2018-09-10T18:52:31.085Z,4.05
2018-09-10T18:55:18.494Z,4.15
2018-09-10T18:57:59.385Z,4.20
2018-09-10T19:06:39.550Z,4.67
2018-09-10T19:09:08.494Z,4.55
2018-09-10T19:11:55.571Z,4.00
2018-09-10T19:14:26.047Z,4.40
2018-09-10T19:16:53.713Z,4.40
2018-09-10T19:22:21.669Z,4.12
2018-09-10T19:24:49.279Z,4.45
2018-09-10T19:27:16.634Z,3.90
2018-09-10T19:29:44.035Z,4.10
2018-09-10T19:32:11.956Z,3.65
2018-09-10T19:34:39.348Z,3.50
2018-09-10T19:37:06.794Z,3.77
2018-09-10T19:39:34.176Z,3.70
2018-09-10T19:42:01.694Z,3.50
2018-09-10T19:44:29.132Z,3.55
2018-09-10T20:39:24.684Z,4.40
2018-09-10T20:41:52.197Z,4.30
2018-09-10T20:44:25.494Z,4.10
2018-09-10T20:46:52.976Z,4.47
2018-09-10T20:49:26.805Z,4.53
2018-09-10T20:54:56.458Z,4.10
2018-09-10T21:00:34.433Z,4.37
2018-09-10T21:06:09.035Z,4.20
2018-09-10T21:14:41.519Z,4.50
2018-09-10T21:20:24.176Z,4.30
2018-09-10T21:23:12.176Z,4.42
2018-09-10T21:25:39.707Z,4.72
2018-09-10T21:34:03.648Z,5.05
2018-09-10T21:42:37.277Z,5.20
2018-09-10T21:45:04.930Z,5.60
2018-09-10T21:50:35.276Z,4.65
2018-09-10T21:56:08.073Z,4.70
2018-09-10T21:58:36.117Z,5.05
2018-09-10T22:01:27.249Z,5.10
2018-09-10T22:03:54.968Z,4.70
2018-09-10T22:18:14.535Z,4.97
2018-09-10T22:44:44.530Z,4.90
2018-09-10T23:20:46.701Z,4.87
2018-09-10T23:41:26.740Z,5.15
2018-09-10T23:44:08.240Z,5.10
2018-09-10T23:49:48.053Z,5.03
2018-09-10T23:52:16.024Z,5.70
2018-09-10T23:54:46.057Z,5.08
2018-09-10T23:57:18.397Z,5.33
2018-09-10T23:59:49.849Z,4.87
